sensor_id;sensor_type;location;lat;lon;timestamp;temperature;humidity
10263;DHT22;5177;50.068;8.156;2023-05-02T00:01:29;13.80;99.90
10263;DHT22;5177;50.068;8.156;2023-05-02T00:03:55;13.80;99.90
10263;DHT22;5177;50.068;8.156;2023-05-02T00:06:21;13.70;99.90
10263;DHT22;5177;50.068;8.156;2023-05-02T00:08:47;13.80;99.90
10263;DHT22;5177;50.068;8.156;2023-05-02T00:11:13;13.70;99.90
10263;DHT22;5177;50.068;8.156;2023-05-02T00:13:38;13.60;99.90
10263;DHT22;5177;50.068;8.156;2023-05-02T00:16:04;13.60;99.90
10263;DHT22;5177;50.068;8.156;2023-05-02T00:18:30;13.50;99.90
10263;DHT22;5177;50.068;8.156;2023-05-02T00:20:55;13.50;99.90
10263;DHT22;5177;50.068;8.156;2023-05-02T00:23:21;13.30;99.90
10263;DHT22;5177;50.068;8.156;2023-05-02T00:25:46;13.30;99.90
10263;DHT22;5177;50.068;8.156;2023-05-02T00:28:12;13.30;99.90
10263;DHT22;5177;50.068;8.156;2023-05-02T00:30:42;13.20;99.90
10263;DHT22;5177;50.068;8.156;2023-05-02T00:33:07;13.20;99.90
10263;DHT22;5177;50.068;8.156;2023-05-02T00:35:33;13.10;99.90
10263;DHT22;5177;50.068;8.156;2023-05-02T00:37:58;13.10;99.90
10263;DHT22;5177;50.068;8.156;2023-05-02T00:40:24;13.10;99.90
10263;DHT22;5177;50.068;8.156;2023-05-02T00:42:51;13.10;99.90
10263;DHT22;5177;50.068;8.156;2023-05-02T00:45:16;13.10;99.90
10263;DHT22;5177;50.068;8.156;2023-05-02T00:47:42;13.00;99.90
10263;DHT22;5177;50.068;8.156;2023-05-02T00:50:08;13.00;99.90
10263;DHT22;5177;50.068;8.156;2023-05-02T00:52:33;13.00;99.90
10263;DHT22;5177;50.068;8.156;2023-05-02T00:55:00;12.90;99.90
10263;DHT22;5177;50.068;8.156;2023-05-02T00:57:25;13.00;99.90
10263;DHT22;5177;50.068;8.156;2023-05-02T00:59:51;12.80;99.90
10263;DHT22;5177;50.068;8.156;2023-05-02T01:02:42;12.80;99.90
10263;DHT22;5177;50.068;8.156;2023-05-02T01:07:53;12.70;99.90
10263;DHT22;5177;50.068;8.156;2023-05-02T01:13:02;12.60;99.90
10263;DHT22;5177;50.068;8.156;2023-05-02T01:15:28;12.60;99.90
10263;DHT22;5177;50.068;8.156;2023-05-02T01:18:08;12.60;99.90
10263;DHT22;5177;50.068;8.156;2023-05-02T01:20:35;12.60;99.90
10263;DHT22;5177;50.068;8.156;2023-05-02T01:23:03;12.70;99.90
10263;DHT22;5177;50.068;8.156;2023-05-02T01:25:48;12.60;99.90
10263;DHT22;5177;50.068;8.156;2023-05-02T01:28:22;12.60;99.90
10263;DHT22;5177;50.068;8.156;2023-05-02T01:30:51;12.60;99.90
10263;DHT22;5177;50.068;8.156;2023-05-02T01:33:19;12.60;99.90
10263;DHT22;5177;50.068;8.156;2023-05-02T01:35:45;12.60;99.90
10263;DHT22;5177;50.068;8.156;2023-05-02T01:38:14;12.50;99.90
10263;DHT22;5177;50.068;8.156;2023-05-02T01:40:42;12.50;99.90
10263;DHT22;5177;50.068;8.156;2023-05-02T01:43:09;12.50;99.90
10263;DHT22;5177;50.068;8.156;2023-05-02T01:45:35;12.50;99.90
10263;DHT22;5177;50.068;8.156;2023-05-02T01:48:03;12.50;99.90
10263;DHT22;5177;50.068;8.156;2023-05-02T01:50:30;12.50;99.90
10263;DHT22;5177;50.068;8.156;2023-05-02T01:52:56;12.50;99.90
10263;DHT22;5177;50.068;8.156;2023-05-02T01:55:22;12.50;99.90
10263;DHT22;5177;50.068;8.156;2023-05-02T01:57:48;12.60;99.90
10263;DHT22;5177;50.068;8.156;2023-05-02T02:00:15;12.70;99.90
10263;DHT22;5177;50.068;8.156;2023-05-02T02:02:41;12.60;99.90
10263;DHT22;5177;50.068;8.156;2023-05-02T02:05:08;12.60;99.90
10263;DHT22;5177;50.068;8.156;2023-05-02T02:07:34;12.60;99.90
10263;DHT22;5177;50.068;8.156;2023-05-02T02:10:00;12.60;99.90
10263;DHT22;5177;50.068;8.156;2023-05-02T02:12:26;12.70;99.90
10263;DHT22;5177;50.068;8.156;2023-05-02T02:14:59;12.60;99.90
10263;DHT22;5177;50.068;8.156;2023-05-02T02:17:25;12.60;99.90
10263;DHT22;5177;50.068;8.156;2023-05-02T02:19:52;12.60;99.90
10263;DHT22;5177;50.068;8.156;2023-05-02T02:22:19;12.70;99.90
10263;DHT22;5177;50.068;8.156;2023-05-02T02:24:44;12.70;99.90
10263;DHT22;5177;50.068;8.156;2023-05-02T02:27:10;12.70;99.90
10263;DHT22;5177;50.068;8.156;2023-05-02T02:29:36;12.70;99.90
10263;DHT22;5177;50.068;8.156;2023-05-02T02:32:01;12.70;99.90
10263;DHT22;5177;50.068;8.156;2023-05-02T02:34:27;12.50;99.90
10263;DHT22;5177;50.068;8.156;2023-05-02T02:36:56;12.50;99.90
10263;DHT22;5177;50.068;8.156;2023-05-02T02:42:15;12.40;99.90
10263;DHT22;5177;50.068;8.156;2023-05-02T02:44:58;12.40;99.90
10263;DHT22;5177;50.068;8.156;2023-05-02T02:47:31;12.40;99.90
10263;DHT22;5177;50.068;8.156;2023-05-02T02:50:05;12.30;99.90
10263;DHT22;5177;50.068;8.156;2023-05-02T02:52:39;12.40;99.90
10263;DHT22;5177;50.068;8.156;2023-05-02T02:55:19;12.30;99.90
10263;DHT22;5177;50.068;8.156;2023-05-02T02:57:55;12.20;99.90
10263;DHT22;5177;50.068;8.156;2023-05-02T03:00:24;12.30;99.90
10263;DHT22;5177;50.068;8.156;2023-05-02T03:02:50;12.20;99.90
10263;DHT22;5177;50.068;8.156;2023-05-02T03:05:17;12.20;99.90
10263;DHT22;5177;50.068;8.156;2023-05-02T03:07:43;12.20;99.90
10263;DHT22;5177;50.068;8.156;2023-05-02T03:10:09;12.20;99.90
10263;DHT22;5177;50.068;8.156;2023-05-02T03:12:36;12.10;99.90
10263;DHT22;5177;50.068;8.156;2023-05-02T03:17:39;12.10;99.90
10263;DHT22;5177;50.068;8.156;2023-05-02T03:20:04;12.00;99.90
10263;DHT22;5177;50.068;8.156;2023-05-02T03:22:30;12.00;99.90
10263;DHT22;5177;50.068;8.156;2023-05-02T03:24:55;11.90;99.90
10263;DHT22;5177;50.068;8.156;2023-05-02T03:27:21;11.90;99.90
10263;DHT22;5177;50.068;8.156;2023-05-02T03:29:46;11.90;99.90
10263;DHT22;5177;50.068;8.156;2023-05-02T03:32:13;11.90;99.90
10263;DHT22;5177;50.068;8.156;2023-05-02T03:34:38;11.80;99.90
10263;DHT22;5177;50.068;8.156;2023-05-02T03:37:04;11.80;99.90
10263;DHT22;5177;50.068;8.156;2023-05-02T03:39:29;11.70;99.90
10263;DHT22;5177;50.068;8.156;2023-05-02T03:41:55;11.70;99.90
10263;DHT22;5177;50.068;8.156;2023-05-02T03:44:20;11.70;99.90
10263;DHT22;5177;50.068;8.156;2023-05-02T03:46:45;11.60;99.90
10263;DHT22;5177;50.068;8.156;2023-05-02T03:49:12;11.60;99.90
10263;DHT22;5177;50.068;8.156;2023-05-02T03:51:38;11.60;99.90
10263;DHT22;5177;50.068;8.156;2023-05-02T03:54:04;11.50;99.90
10263;DHT22;5177;50.068;8.156;2023-05-02T03:56:29;11.60;99.90
10263;DHT22;5177;50.068;8.156;2023-05-02T03:58:55;11.60;99.90
10263;DHT22;5177;50.068;8.156;2023-05-02T04:01:20;11.50;99.90
10263;DHT22;5177;50.068;8.156;2023-05-02T04:03:46;11.60;99.90
10263;DHT22;5177;50.068;8.156;2023-05-02T04:06:11;11.60;99.90
10263;DHT22;5177;50.068;8.156;2023-05-02T04:08:37;11.60;99.90
10263;DHT22;5177;50.068;8.156;2023-05-02T04:11:03;11.70;99.90
10263;DHT22;5177;50.068;8.156;2023-05-02T04:13:28;11.80;99.90
10263;DHT22;5177;50.068;8.156;2023-05-02T04:15:54;11.80;99.90
10263;DHT22;5177;50.068;8.156;2023-05-02T04:18:20;11.90;99.90
10263;DHT22;5177;50.068;8.156;2023-05-02T04:20:45;12.00;99.90
10263;DHT22;5177;50.068;8.156;2023-05-02T04:23:10;12.00;99.90
10263;DHT22;5177;50.068;8.156;2023-05-02T04:25:36;12.00;99.90
10263;DHT22;5177;50.068;8.156;2023-05-02T04:28:02;12.20;99.90
10263;DHT22;5177;50.068;8.156;2023-05-02T04:30:27;12.10;99.90
10263;DHT22;5177;50.068;8.156;2023-05-02T04:32:53;12.10;99.90
10263;DHT22;5177;50.068;8.156;2023-05-02T04:35:19;12.20;99.90
10263;DHT22;5177;50.068;8.156;2023-05-02T04:37:44;12.10;99.90
10263;DHT22;5177;50.068;8.156;2023-05-02T04:40:10;12.20;99.90
10263;DHT22;5177;50.068;8.156;2023-05-02T04:42:36;12.20;99.90
10263;DHT22;5177;50.068;8.156;2023-05-02T04:45:02;12.20;99.90
10263;DHT22;5177;50.068;8.156;2023-05-02T04:47:28;12.20;99.90
10263;DHT22;5177;50.068;8.156;2023-05-02T04:49:53;12.30;99.90
10263;DHT22;5177;50.068;8.156;2023-05-02T04:52:19;12.30;99.90
10263;DHT22;5177;50.068;8.156;2023-05-02T04:54:44;12.40;99.90
10263;DHT22;5177;50.068;8.156;2023-05-02T04:57:11;12.30;99.90
10263;DHT22;5177;50.068;8.156;2023-05-02T04:59:37;12.40;99.90
10263;DHT22;5177;50.068;8.156;2023-05-02T05:02:02;12.30;99.90
10263;DHT22;5177;50.068;8.156;2023-05-02T05:04:28;12.40;99.90
10263;DHT22;5177;50.068;8.156;2023-05-02T05:06:54;12.30;99.90
10263;DHT22;5177;50.068;8.156;2023-05-02T05:09:19;12.30;99.90
10263;DHT22;5177;50.068;8.156;2023-05-02T05:11:45;12.40;99.90
10263;DHT22;5177;50.068;8.156;2023-05-02T05:14:10;12.40;99.90
10263;DHT22;5177;50.068;8.156;2023-05-02T05:16:36;12.50;99.90
10263;DHT22;5177;50.068;8.156;2023-05-02T05:19:02;12.50;99.90
10263;DHT22;5177;50.068;8.156;2023-05-02T05:21:28;12.60;99.90
10263;DHT22;5177;50.068;8.156;2023-05-02T05:23:54;12.70;99.90
10263;DHT22;5177;50.068;8.156;2023-05-02T05:26:19;12.70;99.90
10263;DHT22;5177;50.068;8.156;2023-05-02T05:28:45;12.70;99.90
10263;DHT22;5177;50.068;8.156;2023-05-02T05:31:11;12.80;99.90
10263;DHT22;5177;50.068;8.156;2023-05-02T05:33:37;12.80;99.90
10263;DHT22;5177;50.068;8.156;2023-05-02T05:36:09;12.80;99.90
10263;DHT22;5177;50.068;8.156;2023-05-02T05:38:36;12.80;99.90
10263;DHT22;5177;50.068;8.156;2023-05-02T05:41:02;12.80;99.90
10263;DHT22;5177;50.068;8.156;2023-05-02T05:43:27;12.90;99.90
10263;DHT22;5177;50.068;8.156;2023-05-02T05:45:53;12.90;99.90
10263;DHT22;5177;50.068;8.156;2023-05-02T05:48:19;13.00;99.90
10263;DHT22;5177;50.068;8.156;2023-05-02T05:50:45;13.00;99.90
10263;DHT22;5177;50.068;8.156;2023-05-02T05:53:11;13.00;99.90
10263;DHT22;5177;50.068;8.156;2023-05-02T05:55:36;13.00;99.90
10263;DHT22;5177;50.068;8.156;2023-05-02T05:58:03;13.00;99.90
10263;DHT22;5177;50.068;8.156;2023-05-02T06:00:28;13.00;99.90
10263;DHT22;5177;50.068;8.156;2023-05-02T06:02:54;13.00;99.90
10263;DHT22;5177;50.068;8.156;2023-05-02T06:05:20;13.20;99.90
10263;DHT22;5177;50.068;8.156;2023-05-02T06:07:45;13.20;99.90
10263;DHT22;5177;50.068;8.156;2023-05-02T06:10:11;13.20;99.90
10263;DHT22;5177;50.068;8.156;2023-05-02T06:12:36;13.20;99.90
10263;DHT22;5177;50.068;8.156;2023-05-02T06:15:02;13.20;99.90
10263;DHT22;5177;50.068;8.156;2023-05-02T06:17:27;13.20;99.90
10263;DHT22;5177;50.068;8.156;2023-05-02T06:19:53;13.30;99.90
10263;DHT22;5177;50.068;8.156;2023-05-02T06:22:18;13.30;99.90
10263;DHT22;5177;50.068;8.156;2023-05-02T06:24:44;13.40;99.90
10263;DHT22;5177;50.068;8.156;2023-05-02T06:27:09;13.50;99.90
10263;DHT22;5177;50.068;8.156;2023-05-02T06:29:35;13.50;99.90
10263;DHT22;5177;50.068;8.156;2023-05-02T06:32:00;13.60;99.90
10263;DHT22;5177;50.068;8.156;2023-05-02T06:34:26;13.60;99.90
10263;DHT22;5177;50.068;8.156;2023-05-02T06:36:54;13.70;99.90
10263;DHT22;5177;50.068;8.156;2023-05-02T06:39:23;13.70;99.90
10263;DHT22;5177;50.068;8.156;2023-05-02T06:41:49;13.60;99.90
10263;DHT22;5177;50.068;8.156;2023-05-02T06:44:14;13.60;99.90
10263;DHT22;5177;50.068;8.156;2023-05-02T06:46:40;13.60;99.90
10263;DHT22;5177;50.068;8.156;2023-05-02T06:49:06;13.70;99.90
10263;DHT22;5177;50.068;8.156;2023-05-02T06:51:31;13.80;99.90
10263;DHT22;5177;50.068;8.156;2023-05-02T06:53:57;13.80;99.90
10263;DHT22;5177;50.068;8.156;2023-05-02T06:56:26;13.90;99.90
10263;DHT22;5177;50.068;8.156;2023-05-02T06:58:51;13.90;99.90
10263;DHT22;5177;50.068;8.156;2023-05-02T07:01:17;14.00;99.90
10263;DHT22;5177;50.068;8.156;2023-05-02T07:03:42;14.10;99.90
10263;DHT22;5177;50.068;8.156;2023-05-02T07:06:08;14.10;99.90
10263;DHT22;5177;50.068;8.156;2023-05-02T07:08:34;14.10;99.90
10263;DHT22;5177;50.068;8.156;2023-05-02T07:10:59;14.10;99.90
10263;DHT22;5177;50.068;8.156;2023-05-02T07:13:25;14.30;99.90
10263;DHT22;5177;50.068;8.156;2023-05-02T07:15:51;14.30;99.90
10263;DHT22;5177;50.068;8.156;2023-05-02T07:18:17;14.30;99.90
10263;DHT22;5177;50.068;8.156;2023-05-02T07:20:42;14.20;99.90
10263;DHT22;5177;50.068;8.156;2023-05-02T07:23:08;14.30;99.90
10263;DHT22;5177;50.068;8.156;2023-05-02T07:25:33;14.30;99.90
10263;DHT22;5177;50.068;8.156;2023-05-02T07:27:59;14.30;99.90
10263;DHT22;5177;50.068;8.156;2023-05-02T07:30:24;14.30;99.90
10263;DHT22;5177;50.068;8.156;2023-05-02T07:32:50;14.30;99.90
10263;DHT22;5177;50.068;8.156;2023-05-02T07:35:15;14.40;99.90
10263;DHT22;5177;50.068;8.156;2023-05-02T07:37:41;14.40;99.90
10263;DHT22;5177;50.068;8.156;2023-05-02T07:40:07;14.40;99.90
10263;DHT22;5177;50.068;8.156;2023-05-02T07:42:33;14.40;99.90
10263;DHT22;5177;50.068;8.156;2023-05-02T07:44:59;14.30;99.90
10263;DHT22;5177;50.068;8.156;2023-05-02T07:47:25;14.30;99.90
10263;DHT22;5177;50.068;8.156;2023-05-02T07:49:54;14.40;99.90
10263;DHT22;5177;50.068;8.156;2023-05-02T07:52:20;14.30;99.90
10263;DHT22;5177;50.068;8.156;2023-05-02T07:54:48;14.30;99.90
10263;DHT22;5177;50.068;8.156;2023-05-02T07:57:14;14.20;99.90
10263;DHT22;5177;50.068;8.156;2023-05-02T07:59:39;14.20;99.90
10263;DHT22;5177;50.068;8.156;2023-05-02T08:02:05;14.20;99.90
10263;DHT22;5177;50.068;8.156;2023-05-02T08:04:31;14.10;99.90
10263;DHT22;5177;50.068;8.156;2023-05-02T08:06:57;14.20;99.90
10263;DHT22;5177;50.068;8.156;2023-05-02T08:09:22;14.20;99.90
10263;DHT22;5177;50.068;8.156;2023-05-02T08:11:48;14.30;99.90
10263;DHT22;5177;50.068;8.156;2023-05-02T08:14:14;14.30;99.90
10263;DHT22;5177;50.068;8.156;2023-05-02T08:16:40;14.40;99.90
10263;DHT22;5177;50.068;8.156;2023-05-02T08:19:05;14.40;99.90
10263;DHT22;5177;50.068;8.156;2023-05-02T08:21:31;14.50;99.90
10263;DHT22;5177;50.068;8.156;2023-05-02T08:23:57;14.50;99.90
10263;DHT22;5177;50.068;8.156;2023-05-02T08:26:23;14.40;99.90
10263;DHT22;5177;50.068;8.156;2023-05-02T08:28:52;14.40;99.90
10263;DHT22;5177;50.068;8.156;2023-05-02T08:31:18;14.50;99.90
10263;DHT22;5177;50.068;8.156;2023-05-02T08:33:43;14.60;99.90
10263;DHT22;5177;50.068;8.156;2023-05-02T08:36:10;14.50;99.90
10263;DHT22;5177;50.068;8.156;2023-05-02T08:38:36;14.60;99.90
10263;DHT22;5177;50.068;8.156;2023-05-02T08:41:01;14.60;99.90
10263;DHT22;5177;50.068;8.156;2023-05-02T08:43:27;14.80;99.90
10263;DHT22;5177;50.068;8.156;2023-05-02T08:45:53;15.00;99.90
10263;DHT22;5177;50.068;8.156;2023-05-02T08:48:22;15.10;99.90
10263;DHT22;5177;50.068;8.156;2023-05-02T08:50:48;15.10;99.90
10263;DHT22;5177;50.068;8.156;2023-05-02T08:53:14;15.10;99.90
10263;DHT22;5177;50.068;8.156;2023-05-02T08:55:40;15.20;99.90
10263;DHT22;5177;50.068;8.156;2023-05-02T08:58:09;15.40;99.90
10263;DHT22;5177;50.068;8.156;2023-05-02T09:00:36;15.40;99.90
10263;DHT22;5177;50.068;8.156;2023-05-02T09:05:32;15.70;99.90
10263;DHT22;5177;50.068;8.156;2023-05-02T09:08:00;16.00;99.90
10263;DHT22;5177;50.068;8.156;2023-05-02T09:10:26;16.00;99.90
10263;DHT22;5177;50.068;8.156;2023-05-02T09:12:52;16.10;99.90
10263;DHT22;5177;50.068;8.156;2023-05-02T09:15:18;16.00;99.90
10263;DHT22;5177;50.068;8.156;2023-05-02T09:17:44;15.90;99.90
10263;DHT22;5177;50.068;8.156;2023-05-02T09:20:11;16.00;99.90
10263;DHT22;5177;50.068;8.156;2023-05-02T09:22:37;16.10;99.90
10263;DHT22;5177;50.068;8.156;2023-05-02T09:25:06;16.20;99.90
10263;DHT22;5177;50.068;8.156;2023-05-02T09:27:51;16.10;99.90
10263;DHT22;5177;50.068;8.156;2023-05-02T09:30:18;16.10;99.90
10263;DHT22;5177;50.068;8.156;2023-05-02T09:32:44;16.20;99.90
10263;DHT22;5177;50.068;8.156;2023-05-02T09:35:10;16.20;99.90
10263;DHT22;5177;50.068;8.156;2023-05-02T09:37:37;16.30;99.90
10263;DHT22;5177;50.068;8.156;2023-05-02T09:40:06;16.40;99.90
10263;DHT22;5177;50.068;8.156;2023-05-02T09:42:33;16.40;99.90
10263;DHT22;5177;50.068;8.156;2023-05-02T09:44:59;16.30;99.90
10263;DHT22;5177;50.068;8.156;2023-05-02T09:47:24;16.30;99.90
10263;DHT22;5177;50.068;8.156;2023-05-02T09:49:52;16.20;99.90
10263;DHT22;5177;50.068;8.156;2023-05-02T09:52:19;16.20;99.90
10263;DHT22;5177;50.068;8.156;2023-05-02T09:54:47;16.20;99.90
10263;DHT22;5177;50.068;8.156;2023-05-02T09:57:16;16.40;99.90
10263;DHT22;5177;50.068;8.156;2023-05-02T09:59:55;16.60;99.90
10263;DHT22;5177;50.068;8.156;2023-05-02T10:02:20;16.80;99.90
10263;DHT22;5177;50.068;8.156;2023-05-02T10:04:46;16.70;99.90
10263;DHT22;5177;50.068;8.156;2023-05-02T10:07:12;16.90;99.90
10263;DHT22;5177;50.068;8.156;2023-05-02T10:09:40;17.00;99.90
10263;DHT22;5177;50.068;8.156;2023-05-02T10:12:07;17.20;99.90
10263;DHT22;5177;50.068;8.156;2023-05-02T10:14:38;17.30;99.90
10263;DHT22;5177;50.068;8.156;2023-05-02T10:17:04;17.20;99.90
10263;DHT22;5177;50.068;8.156;2023-05-02T10:19:37;17.20;99.90
10263;DHT22;5177;50.068;8.156;2023-05-02T10:22:03;17.10;99.90
10263;DHT22;5177;50.068;8.156;2023-05-02T10:24:30;17.10;99.90
10263;DHT22;5177;50.068;8.156;2023-05-02T10:26:56;17.00;99.90
10263;DHT22;5177;50.068;8.156;2023-05-02T10:29:22;17.10;99.90
10263;DHT22;5177;50.068;8.156;2023-05-02T10:31:48;17.30;99.90
10263;DHT22;5177;50.068;8.156;2023-05-02T10:34:14;17.50;99.90
10263;DHT22;5177;50.068;8.156;2023-05-02T10:36:41;17.40;99.90
10263;DHT22;5177;50.068;8.156;2023-05-02T10:39:06;17.40;99.90
10263;DHT22;5177;50.068;8.156;2023-05-02T10:41:32;17.40;99.90
10263;DHT22;5177;50.068;8.156;2023-05-02T10:43:58;17.50;99.90
10263;DHT22;5177;50.068;8.156;2023-05-02T10:49:00;18.00;99.90
10263;DHT22;5177;50.068;8.156;2023-05-02T10:51:26;18.50;99.90
10263;DHT22;5177;50.068;8.156;2023-05-02T10:53:52;19.00;99.90
10263;DHT22;5177;50.068;8.156;2023-05-02T10:56:19;19.10;99.90
10263;DHT22;5177;50.068;8.156;2023-05-02T10:58:51;19.00;99.90
10263;DHT22;5177;50.068;8.156;2023-05-02T11:06:25;19.50;99.90
10263;DHT22;5177;50.068;8.156;2023-05-02T11:08:51;19.70;99.90
10263;DHT22;5177;50.068;8.156;2023-05-02T11:14:01;19.90;99.90
10263;DHT22;5177;50.068;8.156;2023-05-02T11:16:30;20.20;99.90
10263;DHT22;5177;50.068;8.156;2023-05-02T11:19:12;20.40;99.90
10263;DHT22;5177;50.068;8.156;2023-05-02T11:21:38;20.90;99.90
10263;DHT22;5177;50.068;8.156;2023-05-02T11:26:48;21.00;99.90
10263;DHT22;5177;50.068;8.156;2023-05-02T11:29:23;20.70;99.90
10263;DHT22;5177;50.068;8.156;2023-05-02T11:31:59;20.10;99.90
10263;DHT22;5177;50.068;8.156;2023-05-02T11:34:25;19.50;99.90
10263;DHT22;5177;50.068;8.156;2023-05-02T11:36:50;19.20;99.90
10263;DHT22;5177;50.068;8.156;2023-05-02T11:39:19;19.10;99.90
10263;DHT22;5177;50.068;8.156;2023-05-02T11:41:46;19.10;99.90
10263;DHT22;5177;50.068;8.156;2023-05-02T11:44:12;19.70;99.90
10263;DHT22;5177;50.068;8.156;2023-05-02T11:46:38;20.30;99.90
10263;DHT22;5177;50.068;8.156;2023-05-02T11:49:04;20.30;99.90
10263;DHT22;5177;50.068;8.156;2023-05-02T11:51:30;20.40;99.90
10263;DHT22;5177;50.068;8.156;2023-05-02T11:53:55;19.80;99.90
10263;DHT22;5177;50.068;8.156;2023-05-02T11:56:24;19.40;99.90
10263;DHT22;5177;50.068;8.156;2023-05-02T11:59:00;19.10;99.90
10263;DHT22;5177;50.068;8.156;2023-05-02T12:01:25;18.70;99.90
10263;DHT22;5177;50.068;8.156;2023-05-02T12:04:04;18.30;99.90
10263;DHT22;5177;50.068;8.156;2023-05-02T12:06:31;18.00;99.90
10263;DHT22;5177;50.068;8.156;2023-05-02T12:09:11;17.80;99.90
10263;DHT22;5177;50.068;8.156;2023-05-02T12:11:37;17.50;99.90
10263;DHT22;5177;50.068;8.156;2023-05-02T12:14:03;17.30;99.90
10263;DHT22;5177;50.068;8.156;2023-05-02T12:16:29;17.10;99.90
10263;DHT22;5177;50.068;8.156;2023-05-02T12:18:55;17.00;99.90
10263;DHT22;5177;50.068;8.156;2023-05-02T12:21:24;16.90;99.90
10263;DHT22;5177;50.068;8.156;2023-05-02T12:23:50;16.70;99.90
10263;DHT22;5177;50.068;8.156;2023-05-02T12:26:24;16.70;99.90
10263;DHT22;5177;50.068;8.156;2023-05-02T12:28:53;16.70;99.90
10263;DHT22;5177;50.068;8.156;2023-05-02T12:31:19;16.80;99.90
10263;DHT22;5177;50.068;8.156;2023-05-02T12:33:45;16.90;99.90
10263;DHT22;5177;50.068;8.156;2023-05-02T12:36:15;16.90;99.90
10263;DHT22;5177;50.068;8.156;2023-05-02T12:38:51;17.10;99.90
10263;DHT22;5177;50.068;8.156;2023-05-02T12:41:28;17.20;99.90
10263;DHT22;5177;50.068;8.156;2023-05-02T12:43:54;17.30;99.90
10263;DHT22;5177;50.068;8.156;2023-05-02T12:46:20;17.50;99.90
10263;DHT22;5177;50.068;8.156;2023-05-02T12:48:45;17.70;99.90
10263;DHT22;5177;50.068;8.156;2023-05-02T12:51:21;17.90;99.90
10263;DHT22;5177;50.068;8.156;2023-05-02T12:53:47;17.90;99.90
10263;DHT22;5177;50.068;8.156;2023-05-02T12:56:13;18.30;99.90
10263;DHT22;5177;50.068;8.156;2023-05-02T12:58:39;18.50;99.90
10263;DHT22;5177;50.068;8.156;2023-05-02T13:01:06;18.80;99.90
10263;DHT22;5177;50.068;8.156;2023-05-02T13:03:31;19.00;99.90
10263;DHT22;5177;50.068;8.156;2023-05-02T13:05:57;19.10;99.90
10263;DHT22;5177;50.068;8.156;2023-05-02T13:08:22;19.50;99.90
10263;DHT22;5177;50.068;8.156;2023-05-02T13:10:48;19.70;99.90
10263;DHT22;5177;50.068;8.156;2023-05-02T13:13:13;20.00;99.90
10263;DHT22;5177;50.068;8.156;2023-05-02T13:15:41;19.90;99.90
10263;DHT22;5177;50.068;8.156;2023-05-02T13:18:07;20.30;99.90
10263;DHT22;5177;50.068;8.156;2023-05-02T13:20:32;21.00;99.90
10263;DHT22;5177;50.068;8.156;2023-05-02T13:22:58;21.40;99.90
10263;DHT22;5177;50.068;8.156;2023-05-02T13:25:23;22.10;99.90
10263;DHT22;5177;50.068;8.156;2023-05-02T13:27:49;22.30;99.90
10263;DHT22;5177;50.068;8.156;2023-05-02T13:30:14;22.20;99.90
10263;DHT22;5177;50.068;8.156;2023-05-02T13:32:40;22.20;99.90
10263;DHT22;5177;50.068;8.156;2023-05-02T13:35:06;22.40;99.90
10263;DHT22;5177;50.068;8.156;2023-05-02T13:37:31;22.60;99.90
10263;DHT22;5177;50.068;8.156;2023-05-02T13:39:57;22.40;99.90
10263;DHT22;5177;50.068;8.156;2023-05-02T13:42:22;22.50;99.90
10263;DHT22;5177;50.068;8.156;2023-05-02T13:44:48;22.40;99.90
10263;DHT22;5177;50.068;8.156;2023-05-02T13:47:13;22.50;99.90
10263;DHT22;5177;50.068;8.156;2023-05-02T13:49:39;22.60;99.90
10263;DHT22;5177;50.068;8.156;2023-05-02T13:52:04;22.70;99.90
10263;DHT22;5177;50.068;8.156;2023-05-02T13:54:30;22.30;99.90
10263;DHT22;5177;50.068;8.156;2023-05-02T13:56:55;22.50;99.90
10263;DHT22;5177;50.068;8.156;2023-05-02T13:59:21;23.00;99.90
10263;DHT22;5177;50.068;8.156;2023-05-02T14:01:47;23.30;99.90
10263;DHT22;5177;50.068;8.156;2023-05-02T14:04:13;23.20;99.90
10263;DHT22;5177;50.068;8.156;2023-05-02T14:06:38;23.30;99.90
10263;DHT22;5177;50.068;8.156;2023-05-02T14:09:04;23.40;99.60
10263;DHT22;5177;50.068;8.156;2023-05-02T14:11:29;22.60;99.90
10263;DHT22;5177;50.068;8.156;2023-05-02T14:13:55;22.00;99.90
10263;DHT22;5177;50.068;8.156;2023-05-02T14:16:22;22.20;99.90
10263;DHT22;5177;50.068;8.156;2023-05-02T14:18:48;21.90;99.90
10263;DHT22;5177;50.068;8.156;2023-05-02T14:21:15;21.20;99.90
10263;DHT22;5177;50.068;8.156;2023-05-02T14:23:41;20.60;99.90
10263;DHT22;5177;50.068;8.156;2023-05-02T14:26:06;20.50;99.90
10263;DHT22;5177;50.068;8.156;2023-05-02T14:28:32;21.50;99.90
10263;DHT22;5177;50.068;8.156;2023-05-02T14:30:57;23.10;99.90
10263;DHT22;5177;50.068;8.156;2023-05-02T14:33:23;24.60;96.60
10263;DHT22;5177;50.068;8.156;2023-05-02T14:35:48;25.20;93.70
10263;DHT22;5177;50.068;8.156;2023-05-02T14:38:14;25.80;84.00
10263;DHT22;5177;50.068;8.156;2023-05-02T14:40:39;26.40;73.10
10263;DHT22;5177;50.068;8.156;2023-05-02T14:43:05;26.60;67.70
10263;DHT22;5177;50.068;8.156;2023-05-02T14:45:31;26.80;59.00
10263;DHT22;5177;50.068;8.156;2023-05-02T14:47:56;27.40;52.60
10263;DHT22;5177;50.068;8.156;2023-05-02T14:50:22;27.60;50.90
10263;DHT22;5177;50.068;8.156;2023-05-02T14:52:48;27.70;47.00
10263;DHT22;5177;50.068;8.156;2023-05-02T14:55:14;27.40;43.30
10263;DHT22;5177;50.068;8.156;2023-05-02T14:57:40;27.40;39.70
10263;DHT22;5177;50.068;8.156;2023-05-02T15:00:06;26.60;41.80
10263;DHT22;5177;50.068;8.156;2023-05-02T15:02:32;26.00;43.60
10263;DHT22;5177;50.068;8.156;2023-05-02T15:04:58;25.90;43.50
10263;DHT22;5177;50.068;8.156;2023-05-02T15:07:23;25.60;45.10
10263;DHT22;5177;50.068;8.156;2023-05-02T15:09:49;25.00;47.20
10263;DHT22;5177;50.068;8.156;2023-05-02T15:12:14;25.00;47.20
10263;DHT22;5177;50.068;8.156;2023-05-02T15:14:40;25.30;46.80
10263;DHT22;5177;50.068;8.156;2023-05-02T15:17:05;24.90;48.20
10263;DHT22;5177;50.068;8.156;2023-05-02T15:19:31;24.80;49.20
10263;DHT22;5177;50.068;8.156;2023-05-02T15:21:56;25.00;49.00
10263;DHT22;5177;50.068;8.156;2023-05-02T15:24:22;25.10;47.30
10263;DHT22;5177;50.068;8.156;2023-05-02T15:26:51;25.00;47.10
10263;DHT22;5177;50.068;8.156;2023-05-02T15:29:17;24.80;48.60
10263;DHT22;5177;50.068;8.156;2023-05-02T15:31:42;24.60;48.20
10263;DHT22;5177;50.068;8.156;2023-05-02T15:34:08;24.20;47.60
10263;DHT22;5177;50.068;8.156;2023-05-02T15:36:33;23.60;50.10
10263;DHT22;5177;50.068;8.156;2023-05-02T15:39:03;22.90;48.60
10263;DHT22;5177;50.068;8.156;2023-05-02T15:41:29;22.00;51.90
10263;DHT22;5177;50.068;8.156;2023-05-02T15:43:56;21.10;53.90
10263;DHT22;5177;50.068;8.156;2023-05-02T15:46:22;20.60;55.60
10263;DHT22;5177;50.068;8.156;2023-05-02T15:48:47;20.00;58.40
10263;DHT22;5177;50.068;8.156;2023-05-02T15:51:13;19.60;62.70
10263;DHT22;5177;50.068;8.156;2023-05-02T15:53:38;19.30;66.40
10263;DHT22;5177;50.068;8.156;2023-05-02T15:56:12;19.00;71.50
10263;DHT22;5177;50.068;8.156;2023-05-02T15:58:38;18.80;75.50
10263;DHT22;5177;50.068;8.156;2023-05-02T16:01:04;18.50;80.90
10263;DHT22;5177;50.068;8.156;2023-05-02T16:03:30;18.30;87.00
10263;DHT22;5177;50.068;8.156;2023-05-02T16:05:56;18.10;89.90
10263;DHT22;5177;50.068;8.156;2023-05-02T16:08:26;18.00;90.60